Time;durP1;ratioP1;P1;durP2;ratioP2;P2;SDS_P1;SDS_P2;PMS_P1;PMS_P2;Temp;Humidity;BMP_temperature;BMP_pressure;BME280_temperature;BME280_humidity;BME280_pressure;Samples;Min_cycle;Max_cycle;Signal;HPM_P1;HPM_P2
2021/06/14 00:00:22;;;;;;;10.18;9.05;;;17.50;99.90;;;;;;5057954;28;20106;-84
2021/06/14 00:02:48;;;;;;;9.90;8.70;;;17.50;99.90;;;;;;5054710;28;20025;-85
2021/06/14 00:05:35;;;;;;;12.00;8.27;;;17.50;99.90;;;;;;5054108;28;20028;-85
2021/06/14 00:08:03;;;;;;;8.77;7.88;;;17.50;99.90;;;;;;5054502;28;20040;-85
2021/06/14 00:10:32;;;;;;;9.68;8.27;;;17.40;99.90;;;;;;5053406;28;20083;-85
2021/06/14 00:12:58;;;;;;;10.25;8.32;;;17.40;99.90;;;;;;5061892;28;20048;-85
2021/06/14 00:15:26;;;;;;;9.05;7.95;;;17.40;99.90;;;;;;5056713;28;20060;-85
2021/06/14 00:17:52;;;;;;;8.57;7.70;;;17.40;99.90;;;;;;5053992;28;20036;-85
2021/06/14 00:20:19;;;;;;;10.02;8.40;;;17.40;99.90;;;;;;5052018;28;20021;-85
2021/06/14 00:22:45;;;;;;;9.80;7.80;;;17.40;99.90;;;;;;5053587;28;20112;-86
2021/06/14 00:25:13;;;;;;;8.80;8.00;;;17.40;99.90;;;;;;5053664;28;20104;-85
2021/06/14 00:27:40;;;;;;;11.82;8.73;;;17.40;99.90;;;;;;5067147;28;20096;-85
2021/06/14 00:30:07;;;;;;;10.90;8.40;;;17.40;99.90;;;;;;5057001;28;20017;-85
2021/06/14 00:32:33;;;;;;;8.85;7.43;;;17.30;99.90;;;;;;5054095;28;20017;-85
2021/06/14 00:34:59;;;;;;;9.77;7.55;;;17.30;99.90;;;;;;5054152;28;20459;-85
2021/06/14 00:37:24;;;;;;;10.38;8.10;;;17.30;99.90;;;;;;5054342;28;20487;-86
2021/06/14 00:39:51;;;;;;;9.45;8.30;;;17.30;99.90;;;;;;5052483;28;20108;-87
2021/06/14 00:42:17;;;;;;;9.07;8.18;;;17.30;99.90;;;;;;5052646;28;20071;-85
2021/06/14 00:44:43;;;;;;;8.20;7.28;;;17.30;99.90;;;;;;5053921;28;20025;-86
2021/06/14 00:47:08;;;;;;;9.65;8.07;;;17.30;99.90;;;;;;5053776;28;20489;-84
2021/06/14 00:49:35;;;;;;;8.90;7.97;;;17.30;99.90;;;;;;5052617;28;20029;-84
2021/06/14 00:52:00;;;;;;;8.63;7.75;;;17.30;99.90;;;;;;5053514;28;20411;-86
2021/06/14 00:54:26;;;;;;;11.10;8.63;;;17.30;99.90;;;;;;5053754;28;20025;-86
2021/06/14 00:56:52;;;;;;;9.02;8.13;;;17.30;99.90;;;;;;5052425;28;20025;-84
2021/06/14 00:59:18;;;;;;;8.80;7.80;;;17.30;99.90;;;;;;5053526;28;20103;-85
2021/06/14 01:01:43;;;;;;;8.18;7.32;;;17.30;99.90;;;;;;5062936;28;20032;-83
2021/06/14 01:04:10;;;;;;;9.45;7.72;;;17.30;99.90;;;;;;5063289;28;20466;-86
2021/06/14 01:06:35;;;;;;;9.77;8.43;;;17.30;99.90;;;;;;5053712;28;20025;-84
2021/06/14 01:09:02;;;;;;;9.02;8.13;;;17.30;99.90;;;;;;5053899;28;20103;-85
2021/06/14 01:11:49;;;;;;;9.15;7.90;;;17.30;99.90;;;;;;5052385;28;20025;-85
2021/06/14 01:14:23;;;;;;;9.43;8.23;;;17.30;99.90;;;;;;5053472;28;20025;-84
2021/06/14 01:17:13;;;;;;;9.52;8.52;;;17.30;99.90;;;;;;5052271;28;20021;-84
2021/06/14 01:20:14;;;;;;;10.48;8.40;;;17.30;99.90;;;;;;5053359;28;20463;-84
2021/06/14 01:23:01;;;;;;;9.27;7.85;;;17.40;99.90;;;;;;5052229;28;20476;-84
2021/06/14 01:25:39;;;;;;;12.02;8.45;;;17.40;99.90;;;;;;5052229;28;20467;-85
2021/06/14 01:28:06;;;;;;;13.63;8.68;;;17.30;99.90;;;;;;5052303;28;20058;-84
2021/06/14 01:30:35;;;;;;;10.35;9.00;;;17.30;99.90;;;;;;5085616;28;20048;-84
2021/06/14 01:33:03;;;;;;;9.55;8.55;;;17.30;99.90;;;;;;5055811;28;20033;-86
2021/06/14 01:35:36;;;;;;;10.48;9.40;;;17.30;99.90;;;;;;5074654;28;20010;-84
2021/06/14 01:38:04;;;;;;;13.20;9.55;;;17.30;99.90;;;;;;5073242;28;20035;-84
2021/06/14 01:40:31;;;;;;;11.25;9.05;;;17.30;99.90;;;;;;5056928;28;20017;-85
2021/06/14 01:43:00;;;;;;;11.63;9.73;;;17.40;99.90;;;;;;5053754;28;20020;-84
2021/06/14 01:45:28;;;;;;;12.48;9.68;;;17.40;99.90;;;;;;5052852;28;20029;-84
2021/06/14 01:47:56;;;;;;;11.82;8.93;;;17.40;99.90;;;;;;5054376;28;20021;-84
2021/06/14 01:50:23;;;;;;;10.45;9.35;;;17.40;99.90;;;;;;5054835;28;20085;-84
2021/06/14 01:52:49;;;;;;;10.20;9.20;;;17.40;99.90;;;;;;5052031;28;20068;-84
2021/06/14 01:55:16;;;;;;;11.10;8.32;;;17.40;99.90;;;;;;5051221;28;20170;-84
2021/06/14 01:57:43;;;;;;;13.27;9.02;;;17.50;99.90;;;;;;5051572;28;20025;-84
2021/06/14 02:00:09;;;;;;;11.65;8.90;;;17.50;99.90;;;;;;5053177;28;20047;-85
2021/06/14 02:02:36;;;;;;;11.57;8.90;;;17.50;99.90;;;;;;5052223;28;20025;-85
2021/06/14 02:05:03;;;;;;;11.25;8.45;;;17.50;99.90;;;;;;5053247;28;20159;-85
2021/06/14 02:07:31;;;;;;;8.27;7.47;;;17.50;99.90;;;;;;5053091;28;20013;-86
2021/06/14 02:09:57;;;;;;;7.50;6.80;;;17.60;99.90;;;;;;5051987;28;20029;-86
2021/06/14 02:12:24;;;;;;;8.05;7.25;;;17.70;99.90;;;;;;5071606;28;20032;-86
2021/06/14 02:14:50;;;;;;;9.80;7.70;;;17.80;99.90;;;;;;5062062;28;20375;-85
2021/06/14 02:17:24;;;;;;;10.10;7.00;;;17.80;99.90;;;;;;5053508;28;20502;-85
2021/06/14 02:19:50;;;;;;;7.97;7.18;;;17.90;99.90;;;;;;5051890;28;20033;-86
2021/06/14 02:22:18;;;;;;;9.60;7.20;;;17.90;99.90;;;;;;5053175;28;20100;-86
2021/06/14 02:24:44;;;;;;;10.55;7.60;;;17.90;99.90;;;;;;5053334;28;20028;-86
2021/06/14 02:27:11;;;;;;;11.07;7.43;;;18.00;99.90;;;;;;5054368;28;20021;-86
2021/06/14 02:29:38;;;;;;;8.38;7.43;;;18.10;99.90;;;;;;5056783;28;20025;-85
2021/06/14 02:32:05;;;;;;;8.27;6.90;;;18.20;99.90;;;;;;5056604;28;20391;-86
2021/06/14 02:34:31;;;;;;;7.78;6.32;;;18.40;99.90;;;;;;5056587;28;20025;-86
2021/06/14 02:36:57;;;;;;;11.80;6.95;;;18.60;99.90;;;;;;5057252;28;20496;-85
2021/06/14 02:39:30;;;;;;;10.10;7.55;;;18.90;99.90;;;;;;5060260;28;20025;-87
2021/06/14 02:41:55;;;;;;;;;;;19.10;99.90;;;;;;5055928;28;20049;-87
2021/06/14 02:44:26;;;;;;;13.38;9.13;;;18.90;99.90;;;;;;5055608;28;19951;-86
2021/06/14 02:46:55;;;;;;;11.27;8.32;;;18.90;99.90;;;;;;5065606;28;20029;-85
2021/06/14 02:49:22;;;;;;;9.48;7.53;;;18.80;99.90;;;;;;5070877;28;20049;-86
2021/06/14 02:51:50;;;;;;;8.82;7.30;;;18.70;99.90;;;;;;5055599;28;20361;-86
2021/06/14 02:54:27;;;;;;;7.85;6.38;;;18.80;99.90;;;;;;5056036;28;20025;-86
2021/06/14 02:56:57;;;;;;;6.97;5.90;;;18.80;99.90;;;;;;5054898;28;20021;-86
2021/06/14 02:59:25;;;;;;;6.07;5.47;;;18.90;99.90;;;;;;5056259;28;20053;-85
2021/06/14 03:01:53;;;;;;;5.63;4.80;;;19.40;99.90;;;;;;5054711;28;20108;-87
2021/06/14 03:04:19;;;;;;;5.00;4.43;;;20.30;99.90;;;;;;5054842;28;20063;-88
2021/06/14 03:06:48;;;;;;;7.05;4.30;;;21.40;99.90;;;;;;5055255;28;20380;-87
2021/06/14 03:09:15;;;;;;;5.80;4.07;;;22.40;99.90;;;;;;5054704;28;20037;-85
2021/06/14 03:11:43;;;;;;;4.00;3.70;;;23.30;99.90;;;;;;5054571;28;20029;-85
2021/06/14 03:14:12;;;;;;;4.55;3.90;;;24.20;99.90;;;;;;5056243;28;20032;-86
2021/06/14 03:16:38;;;;;;;4.50;4.10;;;25.10;99.90;;;;;;5057571;28;20025;-86
2021/06/14 03:19:06;;;;;;;5.10;4.10;;;25.90;99.90;;;;;;5068123;28;20059;-85
2021/06/14 03:21:34;;;;;;;4.25;3.83;;;26.50;99.90;;;;;;5065760;28;20017;-85
2021/06/14 03:24:00;;;;;;;3.97;3.58;;;27.00;98.50;;;;;;5072502;28;20028;-85
2021/06/14 03:26:33;;;;;;;4.07;3.60;;;27.60;95.50;;;;;;5076362;28;20017;-86
2021/06/14 03:29:00;;;;;;;4.00;3.60;;;27.90;91.90;;;;;;5066392;28;20025;-86
2021/06/14 03:31:27;;;;;;;6.85;3.85;;;27.70;90.00;;;;;;5055046;28;20108;-86
2021/06/14 03:33:54;;;;;;;4.50;4.10;;;27.30;87.20;;;;;;5056072;28;20024;-86
2021/06/14 03:36:22;;;;;;;7.50;4.47;;;27.10;86.10;;;;;;5054095;28;20016;-86
2021/06/14 03:38:49;;;;;;;4.07;3.55;;;27.20;87.20;;;;;;5053891;28;20036;-86
2021/06/14 03:41:15;;;;;;;4.57;3.47;;;27.50;85.40;;;;;;5055013;28;20021;-86
2021/06/14 03:43:41;;;;;;;4.13;3.70;;;27.20;82.00;;;;;;5053388;28;20021;-86
2021/06/14 03:46:07;;;;;;;4.30;3.90;;;26.80;82.20;;;;;;5054209;28;20094;-86
2021/06/14 03:48:33;;;;;;;4.70;4.20;;;26.30;80.90;;;;;;5055092;28;20021;-86
2021/06/14 03:50:59;;;;;;;7.43;4.93;;;25.60;80.40;;;;;;5052029;28;20021;-86
2021/06/14 03:53:31;;;;;;;5.05;4.60;;;24.90;81.00;;;;;;5053580;28;20037;-86
2021/06/14 03:56:01;;;;;;;10.02;5.03;;;24.30;82.50;;;;;;5060590;28;20021;-86
2021/06/14 03:58:27;;;;;;;8.57;4.85;;;24.00;87.10;;;;;;5073808;28;20029;-87
2021/06/14 04:00:53;;;;;;;5.82;5.25;;;24.10;88.00;;;;;;5054829;28;20028;-84
2021/06/14 04:03:19;;;;;;;7.03;4.70;;;24.00;87.50;;;;;;5054790;28;20025;-84
2021/06/14 04:05:45;;;;;;;6.45;4.93;;;24.40;90.80;;;;;;5053305;28;20032;-84
2021/06/14 04:08:12;;;;;;;5.88;4.75;;;25.30;90.20;;;;;;5052944;28;20108;-84
2021/06/14 04:10:39;;;;;;;6.18;4.72;;;25.80;86.40;;;;;;5054398;28;20139;-85
2021/06/14 04:13:07;;;;;;;5.00;4.45;;;26.20;86.20;;;;;;5053138;28;20071;-85
2021/06/14 04:15:33;;;;;;;6.25;4.30;;;26.90;83.80;;;;;;5054237;28;20039;-84
2021/06/14 04:17:59;;;;;;;4.60;4.20;;;28.00;83.10;;;;;;5054324;28;20025;-83
2021/06/14 04:20:24;;;;;;;4.80;4.35;;;28.90;78.00;;;;;;5054164;28;20024;-85
2021/06/14 04:22:51;;;;;;;6.40;4.10;;;29.30;74.80;;;;;;5052749;28;20368;-84
2021/06/14 04:25:17;;;;;;;5.25;4.20;;;29.80;73.90;;;;;;5052583;28;20021;-84
2021/06/14 04:27:44;;;;;;;5.30;4.80;;;30.50;73.60;;;;;;5052458;28;20031;-83
2021/06/14 04:30:11;;;;;;;5.85;4.93;;;31.20;70.80;;;;;;5056708;28;20400;-84
2021/06/14 04:32:37;;;;;;;5.47;4.97;;;31.40;68.70;;;;;;5064097;28;20410;-84
2021/06/14 04:35:04;;;;;;;5.82;4.95;;;31.10;66.30;;;;;;5054320;28;20104;-84
2021/06/14 04:37:30;;;;;;;7.22;4.13;;;31.00;67.30;;;;;;5052264;28;20032;-83
2021/06/14 04:39:55;;;;;;;5.85;4.57;;;31.70;67.80;;;;;;5052821;28;20082;-83
2021/06/14 04:42:21;;;;;;;7.05;4.20;;;32.10;65.90;;;;;;5053592;28;20021;-82
2021/06/14 04:44:47;;;;;;;9.70;4.32;;;32.60;66.00;;;;;;5052481;28;20028;-85
2021/06/14 04:47:13;;;;;;;4.38;4.07;;;33.50;64.90;;;;;;5054138;28;20017;-83
2021/06/14 04:49:38;;;;;;;6.70;4.72;;;34.10;62.10;;;;;;5054658;28;20523;-83
2021/06/14 04:52:05;;;;;;;5.57;5.07;;;33.50;60.00;;;;;;5058422;28;20492;-83
2021/06/14 04:54:30;;;;;;;5.10;4.60;;;32.60;61.30;;;;;;5060886;28;20491;-85
2021/06/14 04:56:56;;;;;;;5.55;5.05;;;32.20;61.40;;;;;;5065753;28;20039;-82
2021/06/14 04:59:24;;;;;;;7.03;5.50;;;31.70;61.80;;;;;;5055281;28;20025;-81
2021/06/14 05:01:49;;;;;;;7.88;5.20;;;31.10;61.70;;;;;;5051468;28;20364;-84
2021/06/14 05:04:15;;;;;;;6.70;5.30;;;30.60;62.60;;;;;;5052684;28;20039;-83
2021/06/14 05:06:41;;;;;;;6.22;5.15;;;30.50;63.50;;;;;;5058637;28;20021;-81
2021/06/14 05:09:07;;;;;;;7.63;5.45;;;30.80;63.80;;;;;;5056439;28;20029;-83
2021/06/14 05:11:32;;;;;;;6.82;5.43;;;31.30;63.10;;;;;;5045887;28;20464;-83
2021/06/14 05:13:58;;;;;;;9.65;7.30;;;32.00;62.20;;;;;;5041095;28;20022;-81
2021/06/14 05:16:24;;;;;;;8.15;6.63;;;32.60;60.40;;;;;;5040772;28;20029;-82
2021/06/14 05:18:50;;;;;;;6.72;6.10;;;33.50;59.20;;;;;;5042357;28;20027;-82
2021/06/14 05:21:16;;;;;;;8.60;6.57;;;33.90;56.70;;;;;;5039357;28;20088;-81
2021/06/14 05:23:41;;;;;;;10.00;6.15;;;34.30;56.20;;;;;;5040636;28;20423;-85
2021/06/14 05:26:07;;;;;;;7.30;6.60;;;35.00;56.10;;;;;;5039354;28;20436;-82
2021/06/14 05:28:33;;;;;;;6.63;6.03;;;35.80;54.30;;;;;;5040256;28;20071;-83
2021/06/14 05:30:59;;;;;;;10.75;5.88;;;36.00;53.20;;;;;;5040183;28;20029;-82
2021/06/14 05:33:25;;;;;;;7.88;6.03;;;36.40;52.80;;;;;;5040031;28;20044;-86
2021/06/14 05:35:51;;;;;;;7.10;5.80;;;36.90;52.00;;;;;;5039092;28;20052;-81
2021/06/14 05:38:16;;;;;;;7.72;6.07;;;37.40;51.30;;;;;;5040008;28;20075;-81
2021/06/14 05:40:42;;;;;;;11.05;6.35;;;38.00;50.60;;;;;;5040246;28;20025;-83
2021/06/14 05:43:08;;;;;;;8.18;6.82;;;37.90;49.20;;;;;;5043748;28;20017;-79
2021/06/14 05:45:33;;;;;;;6.75;5.82;;;37.70;49.00;;;;;;5044402;28;20073;-81
2021/06/14 05:47:59;;;;;;;9.07;7.30;;;37.60;48.90;;;;;;5041961;28;20527;-80
2021/06/14 05:50:25;;;;;;;13.02;7.43;;;37.30;48.50;;;;;;5040797;28;20033;-81
2021/06/14 05:52:51;;;;;;;8.20;7.40;;;37.40;49.30;;;;;;5037449;28;20041;-82
2021/06/14 05:55:17;;;;;;;8.13;6.75;;;38.00;49.10;;;;;;5039872;28;20029;-81
2021/06/14 05:57:43;;;;;;;9.88;7.60;;;38.60;47.80;;;;;;5040389;28;20033;-81
2021/06/14 06:00:10;;;;;;;11.55;7.00;;;39.30;47.40;;;;;;5038721;28;20025;-80
2021/06/14 06:02:36;;;;;;;12.35;5.95;;;40.10;45.80;;;;;;5043490;28;20488;-78
2021/06/14 06:05:02;;;;;;;10.88;7.70;;;40.30;44.90;;;;;;5044011;28;20013;-80
2021/06/14 06:07:28;;;;;;;11.75;6.43;;;40.40;44.00;;;;;;5042165;28;20021;-80
2021/06/14 06:09:54;;;;;;;7.40;6.70;;;40.30;42.90;;;;;;5043539;28;20036;-80
2021/06/14 06:12:20;;;;;;;9.63;7.13;;;39.30;43.50;;;;;;5043464;28;20026;-80
2021/06/14 06:14:46;;;;;;;10.43;7.45;;;39.00;43.60;;;;;;5042030;28;20032;-80
2021/06/14 06:17:12;;;;;;;10.02;7.78;;;38.50;44.30;;;;;;5045067;28;20391;-81
2021/06/14 06:19:38;;;;;;;14.27;8.70;;;38.30;44.20;;;;;;5045338;28;20021;-81
2021/06/14 06:22:04;;;;;;;9.45;8.43;;;37.90;44.30;;;;;;5044189;28;20022;-82
2021/06/14 06:24:30;;;;;;;10.80;8.80;;;37.30;44.80;;;;;;5043081;28;20021;-79
2021/06/14 06:26:56;;;;;;;15.70;9.48;;;36.90;45.40;;;;;;5042725;28;20468;-80
2021/06/14 06:29:25;;;;;;;11.25;9.27;;;36.60;46.40;;;;;;5042380;28;20031;-80
2021/06/14 06:31:51;;;;;;;11.20;9.85;;;37.10;46.50;;;;;;5044120;28;20440;-80
2021/06/14 06:34:16;;;;;;;17.88;9.93;;;36.70;45.90;;;;;;5043412;28;20145;-80
2021/06/14 06:36:42;;;;;;;11.25;9.45;;;36.20;46.90;;;;;;5042783;28;20021;-81
2021/06/14 06:39:08;;;;;;;12.60;9.93;;;35.70;47.40;;;;;;5044259;28;20025;-80
2021/06/14 06:41:33;;;;;;;10.07;8.95;;;35.40;47.80;;;;;;5043295;28;20426;-81
2021/06/14 06:43:59;;;;;;;11.38;9.35;;;35.50;47.70;;;;;;5043190;28;20067;-80
2021/06/14 06:46:25;;;;;;;13.23;9.38;;;35.80;48.50;;;;;;5044667;28;20025;-81
2021/06/14 06:48:51;;;;;;;10.55;9.32;;;36.00;47.00;;;;;;5054916;28;20491;-80
2021/06/14 06:51:16;;;;;;;11.98;10.73;;;35.80;46.90;;;;;;5053901;28;20025;-80
2021/06/14 06:53:42;;;;;;;15.32;10.80;;;35.50;46.70;;;;;;5055377;28;20036;-80
2021/06/14 06:56:08;;;;;;;18.10;10.35;;;35.00;47.00;;;;;;5055541;28;20044;-80
2021/06/14 06:58:33;;;;;;;14.68;10.23;;;34.70;47.80;;;;;;5054488;28;20029;-80
2021/06/14 07:00:59;;;;;;;9.88;8.73;;;35.00;48.10;;;;;;5053778;28;20017;-80
2021/06/14 07:03:25;;;;;;;9.77;8.52;;;34.90;46.90;;;;;;5053704;28;20353;-82
2021/06/14 07:05:51;;;;;;;9.68;7.20;;;34.80;47.10;;;;;;5053724;28;20100;-82
2021/06/14 07:08:17;;;;;;;10.63;8.23;;;35.10;47.60;;;;;;5054043;28;20029;-82
2021/06/14 07:10:44;;;;;;;10.93;8.10;;;35.80;47.90;;;;;;5053744;28;20039;-78
2021/06/14 07:13:10;;;;;;;13.00;7.50;;;36.20;46.30;;;;;;5051849;28;20155;-78
2021/06/14 07:15:36;;;;;;;8.60;7.70;;;35.90;46.10;;;;;;5053505;28;20033;-77
2021/06/14 07:18:02;;;;;;;10.30;7.68;;;35.70;46.10;;;;;;5053349;28;20025;-78
2021/06/14 07:20:29;;;;;;;13.82;12.00;;;35.80;46.20;;;;;;5053173;28;20017;-77
2021/06/14 07:22:55;;;;;;;9.10;8.20;;;35.60;46.30;;;;;;5053271;28;20036;-78
2021/06/14 07:25:22;;;;;;;8.95;8.00;;;35.90;46.20;;;;;;5053306;28;20017;-78
2021/06/14 07:27:48;;;;;;;9.63;8.25;;;36.10;46.10;;;;;;5053469;28;20048;-76
2021/06/14 07:30:15;;;;;;;15.40;8.23;;;35.80;45.00;;;;;;5053275;28;20025;-78
2021/06/14 07:32:42;;;;;;;13.43;8.30;;;35.30;45.70;;;;;;5053172;28;20017;-78
2021/06/14 07:35:09;;;;;;;11.30;9.52;;;34.80;45.90;;;;;;5053359;28;20075;-75
2021/06/14 07:37:35;;;;;;;12.32;9.13;;;34.50;47.00;;;;;;5053199;28;20025;-79
2021/06/14 07:40:00;;;;;;;10.25;9.02;;;34.20;47.70;;;;;;5052864;28;20025;-78
2021/06/14 07:42:26;;;;;;;11.70;8.45;;;33.60;48.00;;;;;;5052958;28;20024;-78
2021/06/14 07:44:52;;;;;;;12.63;9.32;;;33.30;49.30;;;;;;5052639;28;20063;-78
2021/06/14 07:47:20;;;;;;;13.48;9.35;;;33.30;49.70;;;;;;5052238;28;20331;-78
2021/06/14 07:49:46;;;;;;;10.23;7.78;;;33.00;50.10;;;;;;5052606;28;20021;-78
2021/06/14 07:52:11;;;;;;;14.48;9.63;;;32.80;50.80;;;;;;5052453;28;20143;-78
2021/06/14 07:54:37;;;;;;;14.30;8.10;;;32.80;50.80;;;;;;5052556;28;20021;-78
2021/06/14 07:57:03;;;;;;;12.35;7.90;;;32.50;51.30;;;;;;5052562;28;20483;-81
2021/06/14 07:59:29;;;;;;;12.63;8.27;;;32.30;51.00;;;;;;5052649;28;20036;-78
2021/06/14 08:01:55;;;;;;;13.85;9.35;;;32.10;51.50;;;;;;5052602;28;20025;-78
2021/06/14 08:04:21;;;;;;;9.50;8.45;;;31.80;51.60;;;;;;5052537;28;20032;-78
2021/06/14 08:06:47;;;;;;;8.65;7.80;;;31.20;52.60;;;;;;5052801;28;20017;-77
2021/06/14 08:09:15;;;;;;;11.73;9.07;;;30.90;53.60;;;;;;5052694;28;20029;-78
2021/06/14 08:11:45;;;;;;;10.27;7.93;;;30.90;54.00;;;;;;5052782;28;20024;-78
2021/06/14 08:14:11;;;;;;;11.13;8.40;;;30.90;54.40;;;;;;5050978;28;20067;-77
2021/06/14 08:16:42;;;;;;;7.85;6.07;;;30.90;54.80;;;;;;5052189;28;20025;-76
2021/06/14 08:19:15;;;;;;;;;;;30.90;53.60;;;;;;5052434;28;20025;-78
2021/06/14 08:27:10;;;;;;;9.65;8.68;;;30.30;55.00;;;;;;5032116;28;20427;-77
2021/06/14 08:29:35;;;;;;;12.38;7.75;;;30.00;55.30;;;;;;5033875;28;20022;-77
2021/06/14 08:32:02;;;;;;;15.55;8.10;;;29.50;55.70;;;;;;5033158;28;20021;-79
2021/06/14 08:34:27;;;;;;;8.52;6.40;;;29.30;56.90;;;;;;5032432;28;20052;-78
2021/06/14 08:36:53;;;;;;;11.90;8.60;;;29.50;56.60;;;;;;5030273;28;20068;-77
2021/06/14 08:39:19;;;;;;;9.57;7.40;;;29.80;57.10;;;;;;5031450;28;20482;-78
2021/06/14 08:41:45;;;;;;;11.07;7.20;;;29.90;55.90;;;;;;5032475;28;20025;-77
2021/06/14 08:44:12;;;;;;;8.98;7.65;;;29.80;55.70;;;;;;5032340;28;20029;-77
2021/06/14 08:46:38;;;;;;;13.70;8.38;;;29.80;55.70;;;;;;5033144;28;20033;-77
2021/06/14 08:49:05;;;;;;;11.27;7.88;;;29.60;55.40;;;;;;5032409;28;20069;-77
2021/06/14 08:51:31;;;;;;;12.88;7.30;;;29.30;56.10;;;;;;5032063;28;20396;-78
2021/06/14 08:53:57;;;;;;;7.05;6.38;;;29.20;56.40;;;;;;5031724;28;20030;-78
2021/06/14 08:56:26;;;;;;;8.93;6.72;;;29.00;56.40;;;;;;5031617;28;20130;-77
2021/06/14 08:58:53;;;;;;;15.20;7.38;;;28.80;56.60;;;;;;5031289;28;20037;-77
2021/06/14 09:01:19;;;;;;;9.07;7.00;;;28.70;56.90;;;;;;5032019;28;20021;-78
2021/06/14 09:03:45;;;;;;;7.78;6.82;;;28.70;57.10;;;;;;5031343;28;20028;-78
2021/06/14 09:06:11;;;;;;;8.05;6.85;;;28.70;57.00;;;;;;5031508;28;20036;-78
2021/06/14 09:08:38;;;;;;;11.80;7.50;;;28.60;56.80;;;;;;5030983;28;20022;-77
2021/06/14 09:11:08;;;;;;;10.60;7.15;;;28.30;56.90;;;;;;5031105;28;20057;-78
2021/06/14 09:13:34;;;;;;;8.48;7.57;;;28.10;57.50;;;;;;5031330;28;20396;-77
2021/06/14 09:16:10;;;;;;;12.13;6.88;;;27.90;57.70;;;;;;5031139;28;20044;-77
2021/06/14 09:18:37;;;;;;;9.05;6.50;;;27.90;58.10;;;;;;5031076;28;20124;-78
2021/06/14 09:21:03;;;;;;;8.65;7.40;;;27.90;58.10;;;;;;5031218;28;20099;-78
2021/06/14 09:23:53;;;;;;;13.13;6.90;;;27.80;58.10;;;;;;5031361;28;20415;-78
2021/06/14 09:26:27;;;;;;;6.13;5.60;;;27.80;58.10;;;;;;5029838;28;20116;-77
2021/06/14 09:28:59;;;;;;;10.70;6.10;;;27.80;57.90;;;;;;5030874;28;20048;-78
2021/06/14 09:31:31;;;;;;;9.95;6.30;;;27.80;57.90;;;;;;5030566;28;20056;-78
2021/06/14 09:33:57;;;;;;;9.13;5.78;;;27.80;57.60;;;;;;5030522;28;20448;-79
2021/06/14 09:36:23;;;;;;;11.95;6.28;;;27.80;57.70;;;;;;5032141;28;20026;-77
2021/06/14 09:38:49;;;;;;;6.30;5.32;;;27.70;57.40;;;;;;5034958;28;20041;-77
2021/06/14 09:41:17;;;;;;;9.65;5.43;;;27.70;57.50;;;;;;5033678;28;20022;-77
2021/06/14 09:43:46;;;;;;;10.00;6.40;;;27.70;57.70;;;;;;5034829;28;20539;-76
2021/06/14 09:46:21;;;;;;;6.43;5.65;;;27.70;57.60;;;;;;5034595;28;20061;-77
2021/06/14 09:48:48;;;;;;;6.65;5.75;;;27.60;58.00;;;;;;5034839;28;20025;-76
2021/06/14 09:51:14;;;;;;;8.52;5.30;;;27.50;58.20;;;;;;5033418;28;20033;-77
2021/06/14 09:53:48;;;;;;;12.23;5.95;;;27.40;58.00;;;;;;5034719;28;20107;-77
2021/06/14 09:56:19;;;;;;;9.63;5.55;;;27.20;58.00;;;;;;5034884;28;20060;-77
2021/06/14 09:58:46;;;;;;;7.22;5.75;;;27.20;59.00;;;;;;5035025;28;20873;-77
2021/06/14 10:01:13;;;;;;;10.40;5.57;;;27.30;58.40;;;;;;5035100;28;20057;-77
2021/06/14 10:03:45;;;;;;;10.10;5.50;;;27.30;58.30;;;;;;5034964;28;20025;-77
2021/06/14 10:06:11;;;;;;;5.97;5.32;;;27.20;58.50;;;;;;5034939;28;20022;-76
2021/06/14 10:08:38;;;;;;;12.82;6.00;;;27.20;57.80;;;;;;5034080;28;20105;-77
2021/06/14 10:11:12;;;;;;;5.57;4.97;;;27.10;58.10;;;;;;5034490;28;20099;-77
2021/06/14 10:13:44;;;;;;;6.38;4.68;;;27.10;57.40;;;;;;5034137;28;20353;-77
2021/06/14 10:16:11;;;;;;;;;;;27.00;57.70;;;;;;5035008;28;20105;-77
2021/06/14 10:18:39;;;;;;;8.80;5.82;;;27.00;57.70;;;;;;5034717;28;20225;-77
2021/06/14 10:21:09;;;;;;;9.63;5.53;;;27.00;58.20;;;;;;5034505;28;20026;-77
2021/06/14 10:23:35;;;;;;;5.88;5.28;;;27.00;59.20;;;;;;5034433;28;20026;-77
2021/06/14 10:26:01;;;;;;;8.38;6.82;;;27.20;59.00;;;;;;5034639;28;20030;-76
2021/06/14 10:28:29;;;;;;;7.18;5.38;;;27.30;58.50;;;;;;5033189;28;20098;-75
2021/06/14 10:30:55;;;;;;;6.53;4.90;;;27.50;58.40;;;;;;5034436;28;20033;-76
2021/06/14 10:33:26;;;;;;;8.15;4.63;;;27.60;57.60;;;;;;5034604;28;20021;-76
2021/06/14 10:35:53;;;;;;;6.80;4.50;;;27.60;57.30;;;;;;5034449;28;20156;-76
2021/06/14 10:38:20;;;;;;;8.80;5.10;;;27.40;56.90;;;;;;5034154;28;20721;-76
2021/06/14 10:40:48;;;;;;;8.50;4.80;;;27.30;57.80;;;;;;5033004;28;20090;-75
2021/06/14 10:43:14;;;;;;;7.05;4.28;;;27.40;57.50;;;;;;5034455;28;20115;-78
2021/06/14 10:45:40;;;;;;;5.78;4.50;;;27.40;57.50;;;;;;5033987;28;20029;-76
2021/06/14 10:48:08;;;;;;;9.73;4.97;;;27.50;57.30;;;;;;5033578;28;20033;-78
2021/06/14 10:50:36;;;;;;;4.60;4.18;;;27.50;56.90;;;;;;5033856;28;20028;-76
2021/06/14 10:53:02;;;;;;;4.43;4.03;;;27.40;57.20;;;;;;5035119;28;20484;-76
2021/06/14 10:55:34;;;;;;;6.03;4.00;;;27.40;56.70;;;;;;5041105;28;20084;-76
2021/06/14 10:58:04;;;;;;;11.95;4.68;;;27.40;56.60;;;;;;5053352;28;20017;-76
2021/06/14 11:00:35;;;;;;;7.75;4.00;;;27.30;56.20;;;;;;5053823;28;20525;-76
2021/06/14 11:03:03;;;;;;;5.28;4.57;;;27.20;57.20;;;;;;5052168;28;20481;-77
2021/06/14 11:05:36;;;;;;;5.93;3.80;;;27.30;56.50;;;;;;5053596;28;20075;-76
2021/06/14 11:08:20;;;;;;;7.55;3.90;;;27.30;56.10;;;;;;5053713;28;20024;-76
2021/06/14 11:10:49;;;;;;;6.13;3.88;;;27.30;56.60;;;;;;5053004;28;20159;-77
2021/06/14 11:13:16;;;;;;;9.30;4.30;;;27.30;56.00;;;;;;5052103;28;20120;-76
2021/06/14 11:15:44;;;;;;;9.98;4.03;;;27.10;56.40;;;;;;5053319;28;20028;-76
2021/06/14 11:18:25;;;;;;;4.28;3.95;;;27.20;56.60;;;;;;5053123;28;20100;-77
2021/06/14 11:20:54;;;;;;;10.30;4.00;;;27.30;56.50;;;;;;5051709;28;20021;-76
2021/06/14 11:23:23;;;;;;;4.85;4.10;;;27.30;56.10;;;;;;5053472;28;20024;-77
2021/06/14 11:25:50;;;;;;;5.20;3.92;;;27.30;55.90;;;;;;5053127;28;20110;-74
2021/06/14 11:28:31;;;;;;;5.32;3.95;;;27.20;55.90;;;;;;5052019;28;20353;-78
2021/06/14 11:30:57;;;;;;;7.35;3.47;;;27.20;56.00;;;;;;5053162;28;20021;-78
2021/06/14 11:33:28;;;;;;;4.55;3.65;;;27.20;55.50;;;;;;5047938;28;20488;-78
2021/06/14 11:35:56;;;;;;;6.07;4.03;;;27.10;55.50;;;;;;5031891;28;20412;-78
2021/06/14 11:38:24;;;;;;;6.40;4.20;;;27.10;55.50;;;;;;5031735;28;20287;-77
2021/06/14 11:40:52;;;;;;;4.68;3.60;;;27.10;56.10;;;;;;5032810;28;20029;-77
2021/06/14 11:43:18;;;;;;;9.80;4.10;;;27.20;55.90;;;;;;5032661;28;20028;-77
2021/06/14 11:45:46;;;;;;;3.85;3.55;;;27.10;55.30;;;;;;5032685;28;20200;-76
2021/06/14 11:48:23;;;;;;;9.20;4.20;;;27.10;55.10;;;;;;5032949;28;20096;-77
2021/06/14 11:50:51;;;;;;;3.85;3.45;;;27.10;55.30;;;;;;5033072;28;20528;-77
2021/06/14 11:53:17;;;;;;;6.20;4.13;;;27.10;54.70;;;;;;5033051;28;20127;-75
2021/06/14 11:55:44;;;;;;;4.95;3.30;;;27.10;55.50;;;;;;5032711;28;20053;-76
2021/06/14 11:58:12;;;;;;;4.00;3.50;;;27.30;54.70;;;;;;5032231;28;20030;-76
2021/06/14 12:00:41;;;;;;;3.38;3.03;;;27.30;55.40;;;;;;5032437;28;20071;-76
2021/06/14 12:03:23;;;;;;;4.18;3.40;;;27.30;54.00;;;;;;5032438;28;20033;-76
2021/06/14 12:05:50;;;;;;;4.93;4.00;;;27.30;53.90;;;;;;5032455;28;20451;-76
2021/06/14 12:08:21;;;;;;;5.28;3.38;;;27.20;54.20;;;;;;5032418;28;20033;-76
2021/06/14 12:10:49;;;;;;;3.83;3.40;;;27.20;53.90;;;;;;5032452;28;20107;-76
2021/06/14 12:13:19;;;;;;;5.28;3.80;;;27.00;53.60;;;;;;5032371;28;20025;-77
2021/06/14 12:15:50;;;;;;;4.68;4.10;;;26.80;53.80;;;;;;5032394;28;20026;-76
2021/06/14 12:18:17;;;;;;;5.60;3.63;;;26.70;54.70;;;;;;5032344;28;20031;-76
2021/06/14 12:20:56;;;;;;;4.57;3.40;;;26.70;54.60;;;;;;5030989;28;20500;-76
2021/06/14 12:23:22;;;;;;;5.78;3.28;;;26.50;54.40;;;;;;5032194;28;20079;-76
2021/06/14 12:25:52;;;;;;;4.18;3.45;;;26.50;54.60;;;;;;5032578;28;20037;-78
2021/06/14 12:28:20;;;;;;;5.10;3.70;;;26.50;55.00;;;;;;5032521;28;20430;-75
2021/06/14 12:30:49;;;;;;;4.00;3.70;;;26.50;54.40;;;;;;5032187;28;20029;-75
2021/06/14 12:33:30;;;;;;;6.00;3.40;;;26.40;54.20;;;;;;5031874;28;20032;-76
2021/06/14 12:35:58;;;;;;;4.05;3.67;;;26.50;53.90;;;;;;5032283;28;20728;-74
2021/06/14 12:38:24;;;;;;;6.10;4.05;;;26.40;54.20;;;;;;5031959;28;20029;-75
2021/06/14 12:40:51;;;;;;;4.40;4.00;;;26.50;55.60;;;;;;5032030;28;20063;-74
2021/06/14 12:43:18;;;;;;;4.70;3.78;;;26.70;54.60;;;;;;5032067;28;20712;-73
2021/06/14 12:45:44;;;;;;;4.50;4.10;;;26.80;54.10;;;;;;5032211;28;20033;-75
2021/06/14 12:48:13;;;;;;;4.20;3.80;;;26.90;54.20;;;;;;5032092;28;20085;-73
2021/06/14 12:50:46;;;;;;;4.97;4.47;;;26.80;54.90;;;;;;5031810;28;20098;-74